Time;durP1;ratioP1;P1;durP2;ratioP2;P2;SDS_P1;SDS_P2;PMS_P1;PMS_P2;Temp;Humidity;BMP_temperature;BMP_pressure;BME280_temperature;BME280_humidity;BME280_pressure;Samples;Min_cycle;Max_cycle;Signal;HPM_P1;HPM_P2
2022/05/10 00:01:04;;;;;;;8.23;4.35;;;;;;;8.37;56.94;101123.76;2238074;78;21578;-76
2022/05/10 00:04:08;;;;;;;13.10;5.22;;;;;;;8.30;57.11;101117.63;2239538;78;21022;-75
2022/05/10 00:07:10;;;;;;;13.00;4.65;;;;;;;8.26;57.42;101122.84;2240130;78;21013;-80
2022/05/10 00:10:11;;;;;;;14.35;4.78;;;;;;;8.24;57.43;101119.47;2243475;78;21016;-76
2022/05/10 00:13:14;;;;;;;10.95;4.67;;;;;;;8.20;57.41;101121.19;2230335;78;22319;-76
2022/05/10 00:16:18;;;;;;;10.32;4.87;;;;;;;8.17;57.67;101123.61;2236780;78;21323;-75
2022/05/10 00:19:22;;;;;;;8.08;4.90;;;;;;;8.15;57.56;101118.08;2239256;78;21683;-76
2022/05/10 00:22:24;;;;;;;8.35;4.92;;;;;;;8.13;57.83;101111.59;2241487;78;21045;-75
2022/05/10 00:25:29;;;;;;;8.80;5.00;;;;;;;8.06;58.07;101113.08;2240978;78;21044;-77
2022/05/10 00:28:32;;;;;;;10.03;5.08;;;;;;;7.97;58.09;101115.13;2239139;78;22272;-77
2022/05/10 00:31:38;;;;;;;8.90;4.90;;;;;;;7.91;58.29;101111.18;2239568;78;21583;-77
2022/05/10 00:34:40;;;;;;;11.05;5.17;;;;;;;7.84;58.38;101110.02;2244718;78;21030;-76
2022/05/10 00:37:44;;;;;;;7.45;4.97;;;;;;;7.78;58.55;101109.20;2244639;78;21029;-76
2022/05/10 00:40:47;;;;;;;10.70;5.87;;;;;;;7.74;58.61;101097.19;2240319;78;21014;-75
2022/05/10 00:44:12;;;;;;;12.73;5.30;;;;;;;7.72;58.73;101093.86;2237923;78;21958;-76
2022/05/10 00:47:33;;;;;;;14.68;5.65;;;;;;;7.71;58.90;101085.06;2244371;78;21560;-76
2022/05/10 00:50:45;;;;;;;10.65;5.35;;;;;;;7.80;58.93;101090.11;2244804;78;21049;-76
2022/05/10 00:53:58;;;;;;;11.25;5.60;;;;;;;7.85;58.84;101083.94;2240765;78;21158;-76
2022/05/10 00:57:39;;;;;;;11.00;5.10;;;;;;;7.91;58.85;101083.92;2238086;78;21033;-77
2022/05/10 01:00:46;;;;;;;10.78;5.47;;;;;;;7.93;58.82;101081.52;2242117;78;21060;-76
2022/05/10 01:04:29;;;;;;;9.38;5.20;;;;;;;7.93;58.82;101073.59;2226961;78;21021;-76
2022/05/10 01:07:37;;;;;;;12.18;5.28;;;;;;;7.90;58.89;101082.25;2237825;78;21050;-76
2022/05/10 01:10:59;;;;;;;9.63;5.15;;;;;;;7.88;59.02;101077.08;2236375;78;21033;-75
2022/05/10 01:14:14;;;;;;;8.43;5.42;;;;;;;7.86;59.30;101075.07;2240247;78;21628;-79
2022/05/10 01:17:18;;;;;;;10.75;5.60;;;;;;;7.88;59.29;101069.16;2237939;78;21523;-75
2022/05/10 01:20:24;;;;;;;15.95;6.25;;;;;;;7.88;59.37;101065.68;2233467;78;21120;-76
2022/05/10 01:24:04;;;;;;;12.73;5.78;;;;;;;7.86;59.43;101061.86;2233449;78;20984;-76
2022/05/10 01:27:44;;;;;;;12.60;6.03;;;;;;;7.85;59.50;101057.52;2242889;78;21646;-76
2022/05/10 01:30:48;;;;;;;11.43;5.50;;;;;;;7.82;59.82;101053.33;2238017;78;20977;-75
2022/05/10 01:33:57;;;;;;;14.45;6.03;;;;;;;7.80;59.86;101055.77;2235379;78;21110;-76
2022/05/10 01:37:01;;;;;;;11.97;5.87;;;;;;;7.78;60.00;101049.27;2236623;78;21533;-76
2022/05/10 01:40:33;;;;;;;13.58;6.10;;;;;;;7.74;60.04;101041.25;2229120;78;21014;-77
2022/05/10 01:43:50;;;;;;;11.97;6.28;;;;;;;7.74;60.13;101046.99;2235614;78;21157;-76
2022/05/10 01:47:20;;;;;;;10.28;5.58;;;;;;;7.73;60.16;101047.97;2240894;78;21092;-75
2022/05/10 01:50:46;;;;;;;11.43;5.67;;;;;;;7.74;60.29;101046.99;2240232;78;20969;-75
2022/05/10 01:53:52;;;;;;;10.18;5.67;;;;;;;7.76;60.31;101045.07;2234591;78;21021;-76
2022/05/10 01:56:53;;;;;;;16.27;5.85;;;;;;;7.77;60.38;101040.13;2241964;78;22124;-75
2022/05/10 02:00:06;;;;;;;13.68;5.80;;;;;;;7.78;60.41;101040.51;2235255;78;21029;-75
2022/05/10 02:04:00;;;;;;;11.88;5.78;;;;;;;7.77;60.38;101033.07;2233980;78;21143;-75
2022/05/10 02:07:09;;;;;;;14.50;6.25;;;;;;;7.79;60.44;101034.25;2230728;78;20995;-75
2022/05/10 02:10:19;;;;;;;16.77;6.40;;;;;;;7.79;60.38;101036.89;2240106;78;21066;-75
2022/05/10 02:13:30;;;;;;;14.03;6.30;;;;;;;7.78;60.44;101036.05;2241590;78;21719;-75
2022/05/10 02:16:58;;;;;;;13.72;6.15;;;;;;;7.74;60.42;101035.11;2234144;78;21033;-76
2022/05/10 02:20:07;;;;;;;10.68;5.87;;;;;;;7.70;60.51;101029.73;2234622;78;21573;-74
2022/05/10 02:23:17;;;;;;;12.05;6.33;;;;;;;7.67;60.65;101027.34;2235362;78;21113;-77
2022/05/10 02:26:38;;;;;;;9.78;5.85;;;;;;;7.64;60.63;101029.75;2234195;78;21051;-76
2022/05/10 02:29:47;;;;;;;11.38;6.10;;;;;;;7.56;60.79;101025.57;2235837;78;20970;-77
2022/05/10 02:33:09;;;;;;;9.70;5.60;;;;;;;7.52;60.99;101024.99;2234793;78;21044;-77
2022/05/10 02:36:10;;;;;;;13.08;5.80;;;;;;;7.49;61.13;101030.52;2236765;78;21006;-76
2022/05/10 02:39:12;;;;;;;10.65;5.60;;;;;;;7.46;61.24;101025.95;2239216;78;21517;-77
2022/05/10 02:42:16;;;;;;;18.17;6.33;;;;;;;7.44;61.32;101033.18;2230834;78;21013;-78
2022/05/10 02:45:18;;;;;;;12.25;5.83;;;;;;;7.40;61.41;101025.97;2231326;78;21090;-77
2022/05/10 02:48:33;;;;;;;11.85;6.42;;;;;;;7.39;61.47;101024.30;2237357;78;21039;-76
2022/05/10 02:51:37;;;;;;;9.98;5.72;;;;;;;7.36;61.50;101016.63;2237107;78;22143;-76
2022/05/10 02:54:42;;;;;;;11.68;6.67;;;;;;;7.36;61.58;101027.19;2240277;78;20994;-77
2022/05/10 02:57:47;;;;;;;10.35;5.15;;;;;;;7.34;61.66;101025.14;2240506;78;21070;-79
2022/05/10 03:00:50;;;;;;;8.55;5.17;;;;;;;7.32;61.87;101020.46;2239022;78;21065;-76
2022/05/10 03:03:56;;;;;;;13.38;5.80;;;;;;;7.29;61.87;101024.67;2239996;78;21405;-77
2022/05/10 03:06:57;;;;;;;11.50;6.72;;;;;;;7.27;61.95;101026.13;2237729;78;20997;-75
2022/05/10 03:10:00;;;;;;;11.60;5.83;;;;;;;7.25;62.04;101025.89;2235874;78;21101;-76
2022/05/10 03:13:02;;;;;;;9.70;6.12;;;;;;;7.19;62.24;101021.45;2234332;78;21017;-78
2022/05/10 03:16:04;;;;;;;12.65;6.17;;;;;;;7.17;62.26;101015.94;2236804;78;21111;-76
2022/05/10 03:19:06;;;;;;;14.47;5.97;;;;;;;7.14;62.36;101017.52;2237644;78;21025;-75
2022/05/10 03:22:10;;;;;;;12.78;6.45;;;;;;;7.09;62.47;101019.19;2229703;78;21057;-76
2022/05/10 03:25:17;;;;;;;10.60;6.37;;;;;;;7.09;62.52;101019.19;2239693;78;21396;-75
2022/05/10 03:28:20;;;;;;;18.87;8.93;;;;;;;7.08;62.62;101018.84;2232447;78;21050;-77
2022/05/10 03:31:25;;;;;;;15.98;9.50;;;;;;;7.09;62.73;101020.50;2241716;78;21095;-78
2022/05/10 03:37:48;;;;;;;12.18;5.83;;;;;;;7.18;62.91;101022.92;2234066;78;21548;-76
2022/05/10 03:40:49;;;;;;;9.90;6.12;;;;;;;7.31;62.88;101022.27;2242586;78;21572;-76
2022/05/10 03:43:51;;;;;;;11.12;6.03;;;;;;;7.47;62.88;101015.77;2236684;78;21052;-76
2022/05/10 03:46:52;;;;;;;12.40;6.17;;;;;;;7.68;62.72;101021.08;2239643;78;21042;-77
2022/05/10 03:49:56;;;;;;;16.82;6.20;;;;;;;7.91;62.58;101013.89;2240241;78;21064;-76
2022/05/10 03:52:59;;;;;;;10.82;6.05;;;;;;;8.16;62.36;101016.16;2234975;78;21053;-77
2022/05/10 03:56:03;;;;;;;14.70;6.60;;;;;;;8.43;62.14;101015.67;2233542;78;21050;-76
2022/05/10 03:59:05;;;;;;;9.68;6.50;;;;;;;8.70;61.83;101007.64;2237037;78;21030;-77
2022/05/10 04:02:08;;;;;;;13.10;7.50;;;;;;;8.97;61.54;101009.20;2220742;78;21573;-75
2022/05/10 04:05:11;;;;;;;15.90;8.20;;;;;;;9.35;61.43;101003.67;2237752;78;21011;-75
2022/05/10 04:08:13;;;;;;;13.18;6.08;;;;;;;9.79;60.88;101013.37;2240481;78;21092;-75
2022/05/10 04:11:15;;;;;;;17.02;5.65;;;;;;;10.16;60.50;101010.48;2221341;78;21016;-75
2022/05/10 04:14:18;;;;;;;13.75;6.65;;;;;;;10.59;60.11;101012.66;2223254;79;21024;-75
2022/05/10 04:17:21;;;;;;;11.97;5.53;;;;;;;11.06;59.61;101003.77;2221527;79;21072;-75
2022/05/10 04:20:22;;;;;;;10.58;6.70;;;;;;;11.45;59.20;100998.55;2225562;79;21064;-75
2022/05/10 04:23:26;;;;;;;9.25;5.78;;;;;;;11.84;58.61;100998.73;2219207;79;21615;-76
2022/05/10 04:26:27;;;;;;;14.93;7.40;;;;;;;12.19;57.79;100993.04;2224651;79;20937;-77
2022/05/10 04:29:33;;;;;;;18.17;7.70;;;;;;;12.26;56.99;100999.42;2221270;79;21031;-76
2022/05/10 04:32:34;;;;;;;15.30;6.72;;;;;;;12.34;57.01;100992.83;2223366;79;21524;-76
2022/05/10 04:35:36;;;;;;;11.80;6.85;;;;;;;12.61;56.79;100987.80;2224076;79;21680;-75
2022/05/10 04:38:37;;;;;;;12.58;7.00;;;;;;;12.99;56.43;100986.98;2218321;79;20993;-79
2022/05/10 04:41:46;;;;;;;9.85;6.05;;;;;;;13.39;55.74;100995.59;2218855;79;21016;-75
2022/05/10 04:44:48;;;;;;;13.53;6.78;;;;;;;13.61;55.39;100991.47;2222251;79;21645;-77
2022/05/10 04:47:51;;;;;;;10.23;6.28;;;;;;;14.00;55.00;100989.48;2224506;79;21044;-74
2022/05/10 04:50:53;;;;;;;11.65;6.47;;;;;;;14.51;54.74;100988.72;2218470;79;21020;-77
2022/05/10 04:53:56;;;;;;;10.60;5.95;;;;;;;14.92;54.19;100990.44;2223425;79;21037;-76
2022/05/10 04:56:57;;;;;;;10.28;6.85;;;;;;;15.33;53.50;100984.38;2218481;79;20993;-75
2022/05/10 04:59:58;;;;;;;8.35;5.92;;;;;;;15.69;53.05;100988.67;2220337;79;21068;-77
2022/05/10 05:03:00;;;;;;;10.78;5.97;;;;;;;16.09;52.64;100986.66;2221516;79;21005;-79
2022/05/10 05:06:03;;;;;;;11.60;6.20;;;;;;;16.56;52.06;100988.19;2221418;79;20977;-77
2022/05/10 05:09:04;;;;;;;9.35;5.90;;;;;;;16.94;51.07;100991.28;2222960;78;21579;-75
2022/05/10 05:12:10;;;;;;;12.58;5.87;;;;;;;17.06;50.67;100994.30;2237101;78;20996;-76
2022/05/10 05:15:13;;;;;;;7.95;5.03;;;;;;;17.37;50.67;100998.92;2236759;78;21647;-77
2022/05/10 05:18:17;;;;;;;33.38;6.55;;;;;;;17.73;49.95;101002.05;2233856;78;21071;-76
2022/05/10 05:21:18;;;;;;;7.53;4.85;;;;;;;18.17;49.52;100991.61;2237867;78;21040;-76
2022/05/10 05:24:22;;;;;;;7.72;4.95;;;;;;;18.68;48.71;100995.86;2238233;78;21519;-78
2022/05/10 05:27:23;;;;;;;8.28;4.53;;;;;;;18.80;47.39;100991.59;2237772;78;21077;-80
2022/05/10 05:30:25;;;;;;;7.87;3.62;;;;;;;18.88;46.95;100988.74;2219503;78;21054;-77
2022/05/10 05:33:27;;;;;;;10.25;4.78;;;;;;;19.12;44.96;100994.62;2239045;78;21017;-80
2022/05/10 05:36:29;;;;;;;9.23;4.65;;;;;;;18.78;44.86;100994.99;2237230;78;21013;-84
2022/05/10 05:39:30;;;;;;;8.28;5.05;;;;;;;18.74;44.14;100993.23;2237694;78;20994;-74
2022/05/10 05:42:32;;;;;;;9.58;5.03;;;;;;;18.71;44.14;101001.66;2234774;78;21036;-82
2022/05/10 05:45:34;;;;;;;10.25;4.25;;;;;;;18.92;43.99;100999.43;2234480;78;21014;-83
2022/05/10 05:48:37;;;;;;;12.00;5.20;;;;;;;19.07;43.89;101003.31;2231565;78;21777;-82
2022/05/10 05:51:39;;;;;;;10.98;4.40;;;;;;;19.53;43.67;101002.60;2238522;78;21042;-83
2022/05/10 05:54:43;;;;;;;8.65;4.55;;;;;;;19.70;42.36;101002.55;2236231;78;21023;-81
2022/05/10 05:57:46;;;;;;;12.80;4.92;;;;;;;20.01;42.41;101005.16;2233969;78;21078;-82
2022/05/10 06:00:48;;;;;;;10.80;4.45;;;;;;;20.33;41.10;101004.02;2235167;78;21047;-85
2022/05/10 06:03:51;;;;;;;6.65;4.25;;;;;;;20.27;40.52;100995.41;2238794;78;20973;-82
2022/05/10 06:06:53;;;;;;;6.33;4.30;;;;;;;20.20;38.78;100994.59;2237033;78;21612;-83
2022/05/10 06:09:55;;;;;;;6.83;4.30;;;;;;;19.75;38.95;100987.14;2234756;78;21553;-74
2022/05/10 06:13:01;;;;;;;6.55;4.03;;;;;;;19.48;39.48;100984.88;2226598;79;21089;-85
2022/05/10 06:16:09;;;;;;;6.37;4.08;;;;;;;19.40;39.48;100981.04;2222933;79;21045;-82
2022/05/10 06:19:13;;;;;;;8.43;4.40;;;;;;;19.60;40.32;100981.09;2225992;79;21556;-82
2022/05/10 06:22:17;;;;;;;8.85;4.65;;;;;;;19.92;40.17;100978.95;2227552;79;21013;-83
2022/05/10 06:25:21;;;;;;;8.30;4.17;;;;;;;19.65;38.93;100974.55;2221957;79;21064;-82
2022/05/10 06:28:22;;;;;;;6.20;3.58;;;;;;;19.67;40.17;100974.70;2227898;79;21513;-81
2022/05/10 06:31:24;;;;;;;8.35;4.20;;;;;;;20.02;38.24;100966.44;2222797;79;20978;-82
2022/05/10 06:34:27;;;;;;;7.75;4.00;;;;;;;20.11;39.11;100967.87;2220204;79;21013;-82
2022/05/10 06:40:51;;;;;;;15.60;5.85;;;;;;;19.98;38.91;100971.91;2222953;79;21032;-82
2022/05/10 06:43:52;;;;;;;8.68;4.53;;;;;;;19.63;39.28;100961.32;2221045;79;21039;-82
2022/05/10 06:46:59;;;;;;;6.35;4.25;;;;;;;19.80;38.84;100962.30;2224914;79;21094;-82
2022/05/10 06:50:00;;;;;;;8.50;5.35;;;;;;;19.78;38.81;100958.97;2227977;79;22291;-82
2022/05/10 06:53:03;;;;;;;11.03;4.53;;;;;;;19.80;38.53;100959.61;2223535;79;21006;-82
2022/05/10 06:56:06;;;;;;;14.75;5.22;;;;;;;19.68;38.75;100961.57;2196436;79;22156;-82
2022/05/10 06:59:07;;;;;;;13.78;4.40;;;;;;;19.76;39.11;100955.66;2227176;79;21033;-82
2022/05/10 07:02:09;;;;;;;7.85;5.28;;;;;;;20.11;39.19;100947.66;2220820;79;20989;-82
2022/05/10 07:05:14;;;;;;;11.75;5.30;;;;;;;20.30;38.77;100945.98;2226321;79;21663;-82
2022/05/10 07:08:16;;;;;;;7.10;4.50;;;;;;;20.27;38.24;100945.55;2195148;79;21029;-80
2022/05/10 07:11:20;;;;;;;9.38;4.87;;;;;;;20.04;38.18;100943.31;2224037;78;21100;-82
2022/05/10 07:14:23;;;;;;;9.13;4.58;;;;;;;20.16;38.99;100940.31;2225158;79;21516;-82
2022/05/10 07:17:26;;;;;;;8.58;4.70;;;;;;;20.49;38.07;100930.77;2229117;79;21058;-82
2022/05/10 07:20:28;;;;;;;10.10;5.37;;;;;;;20.91;36.90;100929.09;2226450;79;21569;-82
2022/05/10 07:23:31;;;;;;;11.25;4.92;;;;;;;20.91;37.52;100931.78;2232506;79;21035;-82
2022/05/10 07:26:34;;;;;;;5.25;4.30;;;;;;;21.26;37.64;100932.22;2231990;79;21061;-81
2022/05/10 07:29:38;;;;;;;9.53;4.58;;;;;;;21.08;37.14;100924.02;2230696;79;21566;-82
2022/05/10 07:32:43;;;;;;;8.43;4.67;;;;;;;20.79;37.29;100919.50;2228391;79;21029;-83
2022/05/10 07:39:14;;;;;;;10.10;4.80;;;;;;;20.81;37.20;100918.77;2233752;79;21214;-79
2022/05/10 07:42:18;;;;;;;10.25;4.80;;;;;;;20.65;37.73;100910.64;2234145;79;21061;-79
2022/05/10 07:45:20;;;;;;;7.17;4.10;;;;;;;21.13;37.76;100917.45;2226623;78;21052;-79
2022/05/10 07:48:24;;;;;;;10.23;4.62;;;;;;;21.44;36.85;100906.67;2233476;78;21006;-79
2022/05/10 07:51:28;;;;;;;9.93;4.95;;;;;;;21.67;37.13;100899.84;2234893;79;21423;-78
2022/05/10 07:54:30;;;;;;;9.00;4.80;;;;;;;21.74;36.94;100899.28;2229012;79;21037;-78
2022/05/10 07:57:34;;;;;;;7.20;4.28;;;;;;;21.90;36.84;100901.39;2197148;79;21562;-77
2022/05/10 08:00:38;;;;;;;10.10;4.83;;;;;;;22.02;36.26;100899.30;2228711;78;21073;-77
2022/05/10 08:03:43;;;;;;;6.85;4.87;;;;;;;22.33;36.92;100900.58;2231340;79;21022;-78
2022/05/10 08:06:46;;;;;;;9.48;4.22;;;;;;;22.76;36.31;100905.57;2232395;79;21394;-76
2022/05/10 08:09:48;;;;;;;7.28;4.55;;;;;;;23.02;36.51;100903.05;2227356;79;21101;-78
2022/05/10 08:12:50;;;;;;;8.28;4.10;;;;;;;22.91;35.53;100905.16;2237686;78;21029;-80
2022/05/10 08:15:58;;;;;;;8.00;4.25;;;;;;;22.41;35.88;100906.72;2237976;78;21500;-77
2022/05/10 08:18:59;;;;;;;6.08;3.83;;;;;;;22.27;35.77;100896.58;2233192;78;21070;-78
2022/05/10 08:22:02;;;;;;;9.68;4.58;;;;;;;22.10;35.22;100890.91;2241722;78;21057;-78
2022/05/10 08:25:05;;;;;;;6.70;3.55;;;;;;;22.16;35.18;100897.61;2229639;78;21532;-78
2022/05/10 08:28:13;;;;;;;11.73;4.20;;;;;;;22.27;35.33;100894.73;2239924;78;21017;-78
2022/05/10 08:31:13;;;;;;;7.97;4.20;;;;;;;22.30;35.09;100883.95;2232804;78;21053;-78
2022/05/10 08:34:19;;;;;;;5.90;3.45;;;;;;;22.18;34.72;100892.00;2243487;78;21042;-77
2022/05/10 08:37:23;;;;;;;6.47;3.33;;;;;;;22.29;35.47;100891.25;2230846;78;21108;-78
2022/05/10 08:40:31;;;;;;;6.45;4.10;;;;;;;22.40;34.44;100886.16;2236649;78;21039;-79
2022/05/10 08:43:47;;;;;;;4.70;3.52;;;;;;;22.29;35.57;100889.08;2232623;78;22182;-77
2022/05/10 08:46:56;;;;;;;5.78;3.20;;;;;;;22.70;34.81;100890.26;2236189;78;20991;-79
2022/05/10 08:50:05;;;;;;;6.80;3.62;;;;;;;23.09;35.20;100884.00;2239746;78;20946;-79
2022/05/10 08:53:09;;;;;;;4.67;3.40;;;;;;;23.33;34.31;100887.07;2238440;78;20978;-80
2022/05/10 08:56:22;;;;;;;10.08;3.75;;;;;;;23.39;34.57;100881.25;2235068;78;21115;-78
2022/05/10 08:59:45;;;;;;;10.63;3.02;;;;;;;23.63;34.14;100878.88;2225780;78;21028;-82
2022/05/10 09:02:55;;;;;;;8.50;3.62;;;;;;;23.45;33.68;100877.61;2243293;78;21040;-79
2022/05/10 09:06:01;;;;;;;6.00;3.45;;;;;;;23.08;31.38;100870.19;2232903;78;21022;-78
2022/05/10 09:09:29;;;;;;;4.58;3.27;;;;;;;22.75;32.40;100874.99;2231852;78;21032;-78
2022/05/10 09:12:48;;;;;;;6.10;2.77;;;;;;;22.88;32.30;100867.20;2238878;78;21078;-78
2022/05/10 09:16:01;;;;;;;8.90;2.98;;;;;;;22.96;32.88;100865.56;2240750;78;21102;-78
2022/05/10 09:19:06;;;;;;;4.45;2.77;;;;;;;23.14;32.30;100865.19;2233138;78;21086;-78
2022/05/10 09:23:02;;;;;;;7.50;3.05;;;;;;;23.04;31.92;100856.30;2235785;78;20948;-77
2022/05/10 09:26:05;;;;;;;6.00;3.40;;;;;;;22.63;32.27;100852.46;2234410;78;21083;-78
2022/05/10 09:29:40;;;;;;;8.48;2.92;;;;;;;22.41;32.86;100855.34;2234880;78;21003;-77
2022/05/10 09:36:02;;;;;;;5.28;3.58;;;;;;;22.58;32.96;100853.16;2239196;78;21061;-78
2022/05/10 09:39:24;;;;;;;8.13;3.00;;;;;;;22.70;33.07;100843.73;2233789;78;21338;-77
2022/05/10 09:42:39;;;;;;;9.43;3.52;;;;;;;22.68;33.35;100839.08;2231788;78;21042;-79
2022/05/10 09:45:41;;;;;;;7.50;3.50;;;;;;;23.04;32.85;100834.64;2232482;78;21056;-80
2022/05/10 09:48:44;;;;;;;6.78;3.05;;;;;;;23.14;33.08;100829.47;2217091;78;21041;-78
2022/05/10 09:51:45;;;;;;;6.28;3.17;;;;;;;22.95;32.41;100823.83;2239170;78;21048;-78
2022/05/10 09:54:52;;;;;;;7.00;4.08;;;;;;;22.87;32.32;100822.27;2239491;78;21115;-78
2022/05/10 09:57:57;;;;;;;7.25;3.50;;;;;;;23.01;32.89;100817.52;2237119;78;21566;-77
2022/05/10 10:01:03;;;;;;;9.90;4.25;;;;;;;23.10;32.96;100816.13;2234151;78;21043;-77
2022/05/10 10:04:31;;;;;;;8.35;3.80;;;;;;;23.08;32.56;100807.40;2237008;78;21021;-78
2022/05/10 10:07:34;;;;;;;8.98;3.52;;;;;;;23.40;32.71;100804.39;2239419;78;21576;-79
2022/05/10 10:10:38;;;;;;;6.78;3.20;;;;;;;23.96;32.79;100797.52;2236570;78;21070;-79
2022/05/10 10:13:43;;;;;;;5.33;3.47;;;;;;;24.25;31.91;100795.69;2221762;78;20934;-77
2022/05/10 10:16:51;;;;;;;7.55;3.95;;;;;;;23.91;32.80;100782.53;2236100;78;21095;-79
2022/05/10 10:20:01;;;;;;;4.72;3.45;;;;;;;23.94;32.17;100775.27;2227028;78;20992;-78
2022/05/10 10:23:12;;;;;;;8.90;3.87;;;;;;;24.09;31.30;100780.18;2217266;78;21067;-77
2022/05/10 10:26:28;;;;;;;6.50;3.62;;;;;;;24.10;31.61;100771.81;2237635;78;21368;-78
2022/05/10 10:29:51;;;;;;;7.17;3.12;;;;;;;24.27;31.79;100774.59;2232700;78;21079;-80
2022/05/10 10:33:18;;;;;;;7.17;3.42;;;;;;;24.48;32.28;100760.90;2238247;78;21651;-80
2022/05/10 10:36:32;;;;;;;8.75;3.65;;;;;;;24.58;31.25;100759.73;2234789;78;21052;-78
2022/05/10 10:40:02;;;;;;;6.70;3.40;;;;;;;24.70;31.29;100755.59;2233273;78;21037;-78
2022/05/10 10:43:21;;;;;;;6.78;4.00;;;;;;;24.59;30.44;100750.52;2232871;78;21004;-78
2022/05/10 10:46:40;;;;;;;4.28;3.35;;;;;;;24.09;30.66;100753.89;2236237;78;21042;-80
2022/05/10 10:49:53;;;;;;;7.45;3.30;;;;;;;24.18;31.40;100746.19;2238015;78;21075;-78
2022/05/10 10:52:58;;;;;;;6.33;3.10;;;;;;;24.22;31.62;100735.71;2236227;78;21041;-78
2022/05/10 10:56:29;;;;;;;6.00;3.22;;;;;;;24.46;31.66;100735.09;2237142;78;22281;-78
2022/05/10 10:59:42;;;;;;;4.78;3.08;;;;;;;24.29;29.86;100737.19;2234310;78;21062;-77
2022/05/10 11:02:55;;;;;;;9.10;3.37;;;;;;;24.01;30.56;100729.88;2238669;78;21054;-79
2022/05/10 11:06:24;;;;;;;6.33;2.90;;;;;;;24.41;30.70;100720.86;2227948;78;21041;-78
2022/05/10 11:10:12;;;;;;;5.03;2.75;;;;;;;24.69;30.40;100721.91;2216367;78;21071;-78
2022/05/10 11:13:45;;;;;;;5.05;2.80;;;;;;;25.03;30.29;100724.09;2219164;78;21078;-78
2022/05/10 11:17:10;;;;;;;5.97;2.77;;;;;;;25.19;29.29;100717.04;2228140;79;20958;-79
2022/05/10 11:20:27;;;;;;;3.92;2.50;;;;;;;25.20;29.08;100711.88;2215690;79;21109;-78
2022/05/10 11:24:05;;;;;;;4.97;2.55;;;;;;;25.09;28.65;100711.42;2226547;79;21746;-82
2022/05/10 11:27:30;;;;;;;4.30;2.92;;;;;;;25.15;29.31;100703.15;2225627;79;20994;-76
2022/05/10 11:31:15;;;;;;;5.92;2.65;;;;;;;25.26;28.96;100700.05;2224277;78;21058;-77
2022/05/10 11:34:45;;;;;;;5.87;2.67;;;;;;;25.34;28.74;100696.91;2230445;78;21045;-79
2022/05/10 11:37:54;;;;;;;6.47;2.98;;;;;;;25.49;27.95;100690.31;2226600;79;21014;-77
2022/05/10 11:41:18;;;;;;;6.10;3.15;;;;;;;25.66;27.38;100687.53;2232824;79;22307;-78
2022/05/10 11:44:54;;;;;;;7.92;3.17;;;;;;;25.80;28.14;100683.08;2229786;78;21094;-78
2022/05/10 11:48:01;;;;;;;7.35;2.47;;;;;;;25.80;27.92;100673.02;2228887;79;21019;-78
2022/05/10 11:51:42;;;;;;;16.87;3.40;;;;;;;25.80;27.59;100673.56;2234327;79;21647;-78
2022/05/10 11:55:11;;;;;;;8.90;3.10;;;;;;;25.89;28.10;100664.72;2229422;79;21643;-77
2022/05/10 11:58:14;;;;;;;5.08;2.83;;;;;;;25.71;27.15;100658.25;2232410;79;21492;-82
2022/05/10 12:01:49;;;;;;;5.60;2.72;;;;;;;25.75;27.60;100658.55;2236272;79;21445;-78
2022/05/10 12:05:05;;;;;;;7.78;3.27;;;;;;;25.28;27.54;100643.57;2233881;78;21550;-78
2022/05/10 12:08:25;;;;;;;5.90;2.90;;;;;;;25.06;27.37;100644.89;2185495;79;21074;-78
2022/05/10 12:11:37;;;;;;;9.83;3.37;;;;;;;24.82;27.41;100642.36;2231255;78;21064;-84
2022/05/10 12:21:59;;;;;;;5.92;2.92;;;;;;;24.41;27.72;100631.36;2227663;78;21045;-79
2022/05/10 12:25:04;;;;;;;7.20;2.85;;;;;;;24.50;28.41;100620.44;2232876;78;21043;-77
2022/05/10 12:28:06;;;;;;;4.83;2.60;;;;;;;24.55;27.78;100619.17;2232491;78;20951;-79
2022/05/10 12:31:36;;;;;;;6.83;2.80;;;;;;;24.41;28.43;100616.44;2229451;78;21040;-78
2022/05/10 12:34:46;;;;;;;10.15;3.12;;;;;;;24.57;28.48;100618.38;2152533;81;21056;-77
2022/05/10 12:37:57;;;;;;;5.40;3.02;;;;;;;24.78;28.09;100612.73;2160098;81;21059;-76
2022/05/10 12:41:04;;;;;;;8.20;3.40;;;;;;;24.81;27.41;100604.63;2225088;78;21048;-78
2022/05/10 12:44:35;;;;;;;6.40;3.27;;;;;;;24.45;27.38;100598.66;2237562;78;21048;-77
2022/05/10 12:48:10;;;;;;;7.95;3.12;;;;;;;24.28;28.29;100591.84;2237646;78;21037;-77
2022/05/10 12:51:52;;;;;;;5.20;2.65;;;;;;;24.23;27.98;100597.18;2234816;78;22590;-76
2022/05/10 12:54:59;;;;;;;7.70;2.83;;;;;;;24.38;28.72;100592.53;2237573;78;20993;-78
2022/05/10 12:58:24;;;;;;;5.95;2.77;;;;;;;24.27;28.21;100585.30;2234919;78;21600;-77
2022/05/10 13:01:32;;;;;;;5.35;2.80;;;;;;;24.19;28.17;100584.34;2235634;78;21046;-78
2022/05/10 13:04:40;;;;;;;8.55;2.98;;;;;;;24.26;29.17;100578.24;2231985;78;21021;-77
2022/05/10 13:07:52;;;;;;;5.20;2.77;;;;;;;24.44;28.76;100574.48;2234559;78;21050;-80
2022/05/10 13:10:56;;;;;;;7.30;2.77;;;;;;;24.57;29.44;100580.39;2236199;78;21076;-84
2022/05/10 13:14:01;;;;;;;5.58;3.02;;;;;;;24.64;29.35;100569.90;2224969;78;21078;-79
2022/05/10 13:17:07;;;;;;;6.75;2.70;;;;;;;24.73;29.03;100567.06;2216354;78;21071;-80
2022/05/10 13:20:12;;;;;;;6.87;2.80;;;;;;;24.64;28.95;100560.41;2227510;78;21047;-77
2022/05/10 13:23:15;;;;;;;6.62;2.80;;;;;;;24.73;29.05;100550.79;2228158;78;21055;-81
2022/05/10 13:26:18;;;;;;;6.03;2.92;;;;;;;24.85;28.98;100544.70;2234645;78;21666;-77
2022/05/10 13:29:42;;;;;;;5.72;2.92;;;;;;;24.98;29.07;100539.45;2226484;78;21025;-78
2022/05/10 13:32:51;;;;;;;9.13;2.77;;;;;;;24.94;29.27;100537.76;2227820;78;21072;-84
2022/05/10 13:36:06;;;;;;;5.12;2.90;;;;;;;24.89;29.10;100532.30;2214186;78;21454;-80
2022/05/10 13:39:16;;;;;;;6.20;3.00;;;;;;;24.86;29.16;100524.63;2228188;78;21091;-81
2022/05/10 13:42:19;;;;;;;5.97;3.02;;;;;;;24.87;28.61;100522.76;2229251;78;21972;-78
2022/05/10 13:45:24;;;;;;;6.05;2.83;;;;;;;24.89;28.97;100520.59;2228144;78;20983;-86
2022/05/10 13:48:34;;;;;;;5.12;2.92;;;;;;;24.95;28.88;100513.64;2202189;78;21060;-77
2022/05/10 13:51:51;;;;;;;3.83;2.60;;;;;;;24.95;28.03;100501.97;2226931;78;21532;-81
2022/05/10 13:54:59;;;;;;;7.45;2.77;;;;;;;24.68;28.02;100506.77;2224093;78;21049;-78
2022/05/10 13:58:08;;;;;;;4.37;2.75;;;;;;;24.46;28.57;100500.48;2199220;78;21457;-79
2022/05/10 14:01:14;;;;;;;;;;;;;;;24.12;28.59;100493.17;2228728;78;21094;-79
2022/05/10 14:04:19;;;;;;;5.95;2.77;;;;;;;23.71;28.74;100490.34;2228089;78;20433;-77
2022/05/10 14:07:35;;;;;;;7.75;3.08;;;;;;;23.56;29.09;100478.66;2230657;78;21607;-77
2022/05/10 14:10:39;;;;;;;6.15;3.12;;;;;;;23.46;29.48;100475.25;2228902;78;21552;-77
2022/05/10 14:13:49;;;;;;;4.00;3.33;;;;;;;23.53;29.69;100467.50;2228936;78;21578;-76
2022/05/10 14:16:52;;;;;;;11.55;3.27;;;;;;;23.68;30.09;100469.95;2219895;78;21020;-76
2022/05/10 14:19:58;;;;;;;3.37;2.65;;;;;;;23.56;29.07;100465.66;2226301;78;20997;-77
2022/05/10 14:23:05;;;;;;;7.05;3.17;;;;;;;23.28;29.94;100456.48;2200438;78;21020;-75
2022/05/10 14:26:40;;;;;;;8.45;3.00;;;;;;;23.43;30.48;100448.66;2227831;78;21071;-77
2022/05/10 14:29:44;;;;;;;4.00;2.70;;;;;;;23.48;31.19;100448.75;2227154;78;21059;-78
2022/05/10 14:32:46;;;;;;;6.10;3.10;;;;;;;23.59;31.39;100443.49;2230970;78;21009;-81
2022/05/10 14:35:55;;;;;;;7.80;3.25;;;;;;;23.56;31.25;100435.33;2228577;78;21091;-74
2022/05/10 14:39:00;;;;;;;9.68;2.98;;;;;;;23.69;31.31;100439.08;2225635;78;21003;-75
2022/05/10 14:42:26;;;;;;;12.43;3.85;;;;;;;23.79;31.52;100435.73;2225581;78;21023;-79
2022/05/10 14:45:36;;;;;;;4.85;3.05;;;;;;;23.84;31.47;100430.40;2163951;81;21037;-77
2022/05/10 14:48:45;;;;;;;8.23;3.40;;;;;;;23.92;31.63;100419.69;2159787;81;21007;-74
2022/05/10 14:51:49;;;;;;;7.75;3.15;;;;;;;23.86;31.12;100425.56;2222716;78;21064;-75
2022/05/10 14:54:53;;;;;;;5.28;3.05;;;;;;;23.61;31.15;100415.64;2226788;78;21060;-79
2022/05/10 14:57:58;;;;;;;8.35;3.08;;;;;;;23.51;31.64;100417.66;2230532;78;21098;-73
2022/05/10 15:01:19;;;;;;;9.95;3.83;;;;;;;23.52;32.15;100413.06;2207059;78;21057;-65